createdAt,value
2018-10-16T00:02:16.086Z,83.20
2018-10-16T00:04:43.731Z,84.20
2018-10-16T00:07:11.449Z,84.20
2018-10-16T00:09:39.191Z,84.40
2018-10-16T00:12:07.754Z,84.20
2018-10-16T00:14:35.521Z,84.20
2018-10-16T00:17:03.814Z,84.70
2018-10-16T00:19:31.906Z,84.40
2018-10-16T00:21:59.546Z,85.20
2018-10-16T00:24:27.164Z,85.40
2018-10-16T00:26:54.775Z,85.60
2018-10-16T00:29:22.488Z,85.90
2018-10-16T00:31:50.189Z,86.40
2018-10-16T00:34:17.863Z,86.90
2018-10-16T00:36:45.443Z,87.70
2018-10-16T00:39:14.242Z,87.60
2018-10-16T00:41:42.207Z,87.30
2018-10-16T00:44:10.883Z,88.10
2018-10-16T00:46:39.896Z,88.40
2018-10-16T00:49:07.601Z,87.90
2018-10-16T00:51:36.244Z,87.80
2018-10-16T00:54:03.920Z,87.50
2018-10-16T00:56:31.566Z,88.10
2018-10-16T00:58:59.176Z,87.60
2018-10-16T01:01:29.631Z,87.80
2018-10-16T01:03:57.987Z,87.80
2018-10-16T01:06:25.661Z,87.90
2018-10-16T01:08:53.801Z,88.80
2018-10-16T01:11:22.630Z,89.20
2018-10-16T01:13:50.360Z,90.50
2018-10-16T01:16:18.040Z,91.10
2018-10-16T01:18:45.643Z,91.20
2018-10-16T01:21:13.275Z,91.00
2018-10-16T01:23:40.871Z,90.80
2018-10-16T01:26:08.476Z,90.60
2018-10-16T01:28:36.061Z,90.40
2018-10-16T01:31:03.711Z,90.10
2018-10-16T01:33:31.271Z,90.00
2018-10-16T01:35:58.863Z,90.20
2018-10-16T01:38:26.495Z,90.30
2018-10-16T01:40:54.083Z,90.30
2018-10-16T01:43:21.714Z,90.40
2018-10-16T01:45:49.283Z,90.10
2018-10-16T01:48:16.875Z,89.80
2018-10-16T01:50:44.519Z,90.00
2018-10-16T01:53:12.066Z,90.10
2018-10-16T01:55:39.666Z,89.20
2018-10-16T01:58:07.323Z,89.30
2018-10-16T02:00:34.934Z,89.40
2018-10-16T02:03:02.584Z,88.90
2018-10-16T02:05:30.319Z,88.70
2018-10-16T02:07:57.887Z,89.60
2018-10-16T02:10:25.563Z,90.20
2018-10-16T02:12:53.179Z,89.50
2018-10-16T02:15:20.743Z,88.70
2018-10-16T02:17:48.291Z,89.10
2018-10-16T02:20:15.949Z,89.20
2018-10-16T02:22:43.583Z,89.20
2018-10-16T02:25:11.175Z,89.50
2018-10-16T02:27:39.514Z,89.40
2018-10-16T02:30:07.279Z,89.90
2018-10-16T02:32:34.999Z,90.40
2018-10-16T02:35:02.606Z,90.70
2018-10-16T02:37:30.235Z,90.50
2018-10-16T02:39:57.821Z,90.70
2018-10-16T02:42:25.491Z,91.00
2018-10-16T02:44:53.100Z,91.00
2018-10-16T02:47:20.747Z,91.10
2018-10-16T02:49:48.287Z,90.40
2018-10-16T02:52:15.882Z,90.60
2018-10-16T02:54:43.527Z,90.50
2018-10-16T02:57:11.196Z,90.60
2018-10-16T02:59:38.895Z,90.70
2018-10-16T03:02:06.932Z,90.90
2018-10-16T03:04:34.727Z,91.20
2018-10-16T03:07:02.384Z,91.10
2018-10-16T03:09:30.031Z,90.80
2018-10-16T03:11:57.706Z,91.00
2018-10-16T03:14:26.036Z,90.40
2018-10-16T03:16:53.627Z,90.20
2018-10-16T03:19:21.245Z,90.00
2018-10-16T03:21:48.918Z,90.10
2018-10-16T03:24:16.590Z,89.80
2018-10-16T03:26:44.231Z,89.40
2018-10-16T03:29:11.835Z,89.50
2018-10-16T03:31:39.810Z,89.30
2018-10-16T03:34:07.974Z,89.50
2018-10-16T03:36:35.648Z,88.80
2018-10-16T03:39:04.259Z,90.10
2018-10-16T03:41:31.833Z,90.50
2018-10-16T03:44:01.003Z,91.00
2018-10-16T03:46:29.302Z,91.80
2018-10-16T03:48:56.950Z,92.30
2018-10-16T03:51:24.851Z,92.70
2018-10-16T03:53:54.952Z,92.30
2018-10-16T03:56:22.535Z,92.30
2018-10-16T03:58:50.191Z,92.50
2018-10-16T04:01:18.415Z,92.80
2018-10-16T04:03:46.041Z,93.20
2018-10-16T04:06:13.691Z,93.10
2018-10-16T04:08:41.351Z,92.90
2018-10-16T04:11:08.942Z,93.20
2018-10-16T04:13:36.783Z,93.40
2018-10-16T04:16:04.742Z,93.60
2018-10-16T04:18:32.400Z,93.80
2018-10-16T04:20:59.999Z,93.80
2018-10-16T04:23:27.699Z,93.80
2018-10-16T04:25:55.333Z,93.90
2018-10-16T04:28:22.940Z,93.80
2018-10-16T04:30:50.482Z,93.70
2018-10-16T04:33:18.163Z,93.50
2018-10-16T04:35:45.815Z,93.40
2018-10-16T04:38:13.422Z,93.20
2018-10-16T04:40:41.255Z,92.80
2018-10-16T04:43:08.952Z,92.60
2018-10-16T04:45:36.577Z,92.70
2018-10-16T04:48:04.411Z,92.40
2018-10-16T04:50:32.007Z,92.30
2018-10-16T04:52:59.625Z,92.60
2018-10-16T04:55:27.231Z,92.50
2018-10-16T04:57:54.903Z,92.10
2018-10-16T05:00:22.550Z,91.90
2018-10-16T05:02:50.262Z,91.90
2018-10-16T05:05:22.186Z,91.90
2018-10-16T05:07:50.455Z,92.00
2018-10-16T05:10:18.531Z,92.10
2018-10-16T05:12:46.170Z,92.60
2018-10-16T05:15:31.323Z,92.70
2018-10-16T05:17:58.954Z,92.50
2018-10-16T05:20:26.585Z,92.40
2018-10-16T05:22:54.860Z,92.50
2018-10-16T05:25:22.786Z,92.50
2018-10-16T05:27:50.464Z,92.30
2018-10-16T05:30:18.163Z,92.20
2018-10-16T05:32:45.931Z,92.20
2018-10-16T05:35:14.512Z,92.60
2018-10-16T05:37:42.896Z,92.70
2018-10-16T05:40:10.897Z,92.80
2018-10-16T05:42:39.059Z,92.90
2018-10-16T05:45:08.397Z,92.80
2018-10-16T05:47:36.059Z,92.70
2018-10-16T05:50:03.967Z,92.70
2018-10-16T05:52:31.602Z,93.10
2018-10-16T05:54:59.265Z,93.30
2018-10-16T05:57:26.899Z,93.10
2018-10-16T06:00:59.040Z,92.90
2018-10-16T06:03:26.649Z,93.30
2018-10-16T06:05:54.294Z,93.60
2018-10-16T06:08:22.001Z,93.10
2018-10-16T06:10:49.763Z,92.80
2018-10-16T06:13:17.426Z,92.70
2018-10-16T06:15:45.048Z,92.80
2018-10-16T06:18:12.680Z,92.50
2018-10-16T06:20:40.380Z,92.20
2018-10-16T06:23:08.025Z,91.90
2018-10-16T06:25:35.652Z,91.90
2018-10-16T06:28:23.137Z,91.80
2018-10-16T06:30:50.766Z,92.00
2018-10-16T06:33:20.912Z,91.70
2018-10-16T06:35:48.457Z,91.60
2018-10-16T06:38:16.432Z,91.70
2018-10-16T06:40:44.293Z,91.80
2018-10-16T06:43:11.837Z,92.20
2018-10-16T06:45:39.523Z,91.60
2018-10-16T06:48:07.602Z,91.60
2018-10-16T06:50:35.191Z,91.60
2018-10-16T06:53:02.877Z,91.40
2018-10-16T06:55:30.412Z,91.40
2018-10-16T06:57:58.038Z,91.50
2018-10-16T07:00:25.799Z,91.60
2018-10-16T07:02:53.366Z,92.00
2018-10-16T07:05:22.122Z,92.00
2018-10-16T07:07:49.735Z,92.10
2018-10-16T07:10:17.417Z,91.80
2018-10-16T07:12:45.043Z,91.60
2018-10-16T07:15:12.714Z,91.70
2018-10-16T07:17:40.530Z,91.50
2018-10-16T07:20:08.866Z,91.30
2018-10-16T07:22:36.514Z,91.20
2018-10-16T07:25:05.106Z,90.80
2018-10-16T07:27:32.733Z,84.40
2018-10-16T07:30:00.407Z,74.40
2018-10-16T07:32:27.964Z,65.60
2018-10-16T07:34:55.603Z,59.10
2018-10-16T07:37:23.207Z,55.00
2018-10-16T07:39:50.865Z,54.00
2018-10-16T07:42:18.503Z,53.50
2018-10-16T07:44:46.116Z,53.80
2018-10-16T07:47:13.732Z,53.00
2018-10-16T07:49:41.418Z,52.10
2018-10-16T07:52:09.044Z,50.90
2018-10-16T07:54:36.667Z,50.70
2018-10-16T07:57:04.774Z,49.70
2018-10-16T07:59:32.515Z,49.50
2018-10-16T08:02:00.165Z,49.50
2018-10-16T08:04:42.072Z,49.80
2018-10-16T08:07:09.843Z,49.20
2018-10-16T08:09:37.426Z,49.20
2018-10-16T08:12:07.396Z,48.50
2018-10-16T08:14:35.395Z,47.40
2018-10-16T08:17:03.123Z,48.00
2018-10-16T08:19:30.654Z,48.50
2018-10-16T08:21:58.263Z,48.40
2018-10-16T08:24:25.864Z,48.50
2018-10-16T08:26:53.501Z,46.20
2018-10-16T08:29:21.035Z,45.60
2018-10-16T08:31:48.782Z,45.90
2018-10-16T08:34:16.489Z,45.00
2018-10-16T08:36:44.158Z,45.00
2018-10-16T08:39:16.279Z,45.60
2018-10-16T08:43:25.702Z,44.90
2018-10-16T08:46:04.592Z,43.60
2018-10-16T08:48:43.898Z,41.70
2018-10-16T08:51:22.827Z,42.00
2018-10-16T08:53:50.618Z,40.80
2018-10-16T08:56:18.247Z,41.10
2018-10-16T08:58:45.931Z,41.90
2018-10-16T09:01:13.579Z,42.40
2018-10-16T09:03:41.165Z,42.80
2018-10-16T09:06:08.822Z,42.40
2018-10-16T09:08:36.486Z,41.30
2018-10-16T09:11:04.195Z,41.10
2018-10-16T09:13:31.965Z,40.70
2018-10-16T09:15:59.605Z,39.60
2018-10-16T09:18:27.234Z,38.30
2018-10-16T09:20:55.254Z,37.10
2018-10-16T09:23:22.900Z,36.10
2018-10-16T09:25:51.330Z,36.10
2018-10-16T09:28:19.678Z,36.30
2018-10-16T09:30:47.370Z,35.60
2018-10-16T09:33:15.094Z,35.20
2018-10-16T09:35:42.806Z,35.80
2018-10-16T09:38:10.441Z,35.00
2018-10-16T09:40:38.051Z,33.40
2018-10-16T09:43:05.735Z,33.20
2018-10-16T09:45:33.411Z,32.90
2018-10-16T09:48:01.034Z,32.60
2018-10-16T09:50:28.710Z,31.70
2018-10-16T09:52:56.335Z,31.90
2018-10-16T09:55:24.008Z,31.40
2018-10-16T09:57:51.691Z,32.10
2018-10-16T10:00:24.749Z,33.30
2018-10-16T10:02:52.371Z,32.90
2018-10-16T10:05:20.007Z,32.70
2018-10-16T10:07:47.679Z,32.70
2018-10-16T10:10:15.306Z,31.20
2018-10-16T10:12:42.978Z,31.10
2018-10-16T10:15:10.641Z,31.40
2018-10-16T10:17:38.327Z,30.70
2018-10-16T10:20:06.639Z,30.10
2018-10-16T10:22:34.459Z,30.00
2018-10-16T10:25:02.240Z,30.90
2018-10-16T10:27:30.023Z,30.10
2018-10-16T10:29:57.650Z,30.70
2018-10-16T10:32:25.374Z,31.00
2018-10-16T10:34:53.072Z,30.40
2018-10-16T10:37:20.722Z,31.60
2018-10-16T10:39:48.283Z,31.40
2018-10-16T10:42:16.006Z,30.10
2018-10-16T10:44:43.591Z,30.40
2018-10-16T10:47:11.262Z,29.90
2018-10-16T10:49:38.894Z,29.90
2018-10-16T10:52:06.571Z,29.90
2018-10-16T10:54:34.203Z,29.10
2018-10-16T10:57:02.014Z,28.50
2018-10-16T10:59:29.663Z,28.30
2018-10-16T11:01:57.350Z,28.70
2018-10-16T11:04:25.074Z,28.50
2018-10-16T11:06:52.707Z,28.90
2018-10-16T11:09:20.361Z,28.70
2018-10-16T11:11:53.774Z,28.90
2018-10-16T11:14:22.106Z,29.30
2018-10-16T11:16:49.788Z,28.50
2018-10-16T11:19:17.489Z,29.50
2018-10-16T11:21:45.102Z,29.50
2018-10-16T11:24:12.794Z,29.80
2018-10-16T11:26:40.496Z,29.20
2018-10-16T11:29:08.196Z,30.10
2018-10-16T11:31:35.950Z,30.50
2018-10-16T11:34:03.770Z,31.30
2018-10-16T11:36:31.412Z,30.60
2018-10-16T11:38:59.166Z,30.40
2018-10-16T11:41:26.755Z,29.50
2018-10-16T11:43:54.623Z,28.70
2018-10-16T11:46:22.229Z,28.50
2018-10-16T11:48:49.875Z,28.20
2018-10-16T11:51:17.479Z,28.10
2018-10-16T11:53:45.187Z,27.90
2018-10-16T11:56:12.869Z,27.80
2018-10-16T11:58:40.453Z,27.50
2018-10-16T12:01:08.072Z,27.60
2018-10-16T19:40:50.890Z,76.50
2018-10-16T19:43:24.582Z,75.80
2018-10-16T19:45:58.575Z,75.30
2018-10-16T19:48:32.358Z,75.50
2018-10-16T19:51:06.311Z,75.70
2018-10-16T19:53:40.031Z,76.40
2018-10-16T19:56:13.806Z,76.50
2018-10-16T19:58:47.494Z,76.40
2018-10-16T20:01:21.415Z,76.30
2018-10-16T20:03:55.406Z,76.20
2018-10-16T20:06:29.110Z,76.50
2018-10-16T20:09:04.301Z,76.60
2018-10-16T20:11:38.339Z,76.50
2018-10-16T20:14:12.210Z,76.60
2018-10-16T20:16:39.806Z,77.00
2018-10-16T20:19:07.459Z,77.20
2018-10-16T20:21:35.151Z,77.60
2018-10-16T20:24:02.851Z,77.50
2018-10-16T20:26:30.599Z,77.20
2018-10-16T20:28:58.251Z,77.40
2018-10-16T20:31:26.012Z,77.20
2018-10-16T20:33:53.619Z,77.70
2018-10-16T20:36:21.305Z,77.90
2018-10-16T20:38:48.968Z,77.90
2018-10-16T20:41:16.780Z,77.40
2018-10-16T20:43:44.411Z,77.70
2018-10-16T20:46:12.083Z,77.50
2018-10-16T20:48:39.703Z,79.10
2018-10-16T20:51:07.309Z,80.60
2018-10-16T20:53:34.904Z,81.20
2018-10-16T20:56:02.628Z,80.90
2018-10-16T20:58:30.280Z,81.10
2018-10-16T21:00:58.002Z,81.10
2018-10-16T21:03:25.627Z,80.70
2018-10-16T21:05:53.485Z,80.20
2018-10-16T21:08:20.970Z,80.20
2018-10-16T21:10:48.604Z,80.30
2018-10-16T21:13:16.173Z,82.20
2018-10-16T21:15:43.795Z,82.90
2018-10-16T21:18:11.456Z,83.20
2018-10-16T21:20:39.072Z,82.90
2018-10-16T21:23:06.819Z,82.70
2018-10-16T21:25:34.450Z,82.80
2018-10-16T21:28:02.098Z,82.50
2018-10-16T21:30:29.699Z,82.90
2018-10-16T21:32:57.318Z,82.90
2018-10-16T21:35:24.882Z,83.00
2018-10-16T21:37:52.498Z,83.00
2018-10-16T21:40:20.155Z,83.80
2018-10-16T21:42:47.790Z,83.40
2018-10-16T21:45:15.465Z,83.40
2018-10-16T21:47:43.335Z,83.40
2018-10-16T21:50:10.942Z,84.40
2018-10-16T21:52:38.641Z,84.60
2018-10-16T21:55:06.541Z,84.80
2018-10-16T21:57:34.193Z,85.00
2018-10-16T22:00:01.802Z,84.50
2018-10-16T22:02:35.030Z,83.50
2018-10-16T22:05:02.830Z,84.30
2018-10-16T22:07:30.444Z,84.80
2018-10-16T22:09:58.043Z,84.90
2018-10-16T22:12:25.650Z,85.30
2018-10-16T22:14:53.258Z,84.90
2018-10-16T22:17:20.930Z,84.50
2018-10-16T22:19:48.546Z,84.30
2018-10-16T22:22:16.201Z,83.70
2018-10-16T22:24:43.847Z,84.20
2018-10-16T22:27:11.514Z,84.10
2018-10-16T22:29:39.162Z,84.20
2018-10-16T22:32:06.849Z,84.30
2018-10-16T22:34:34.502Z,85.10
2018-10-16T22:37:02.162Z,85.40
2018-10-16T22:39:29.770Z,88.10
2018-10-16T22:41:57.559Z,88.70
2018-10-16T22:44:25.162Z,89.10
2018-10-16T22:46:52.832Z,89.70
2018-10-16T22:49:20.459Z,89.30
2018-10-16T22:51:48.086Z,89.60
2018-10-16T22:54:15.738Z,90.00
2018-10-16T22:56:43.291Z,89.00
2018-10-16T22:59:11.039Z,88.90
2018-10-16T23:01:38.676Z,89.10
2018-10-16T23:04:06.318Z,88.80
2018-10-16T23:06:33.926Z,88.60
2018-10-16T23:09:01.504Z,88.30
2018-10-16T23:11:29.151Z,87.90
2018-10-16T23:13:56.735Z,88.10
2018-10-16T23:16:24.522Z,89.30
2018-10-16T23:18:52.233Z,90.00
2018-10-16T23:21:19.878Z,90.70
2018-10-16T23:23:47.537Z,91.00
2018-10-16T23:26:15.241Z,91.20
2018-10-16T23:28:42.900Z,91.20
2018-10-16T23:31:10.634Z,91.20
2018-10-16T23:33:38.168Z,91.20
2018-10-16T23:36:05.950Z,91.00
2018-10-16T23:38:33.654Z,90.80
2018-10-16T23:41:01.353Z,90.60
2018-10-16T23:43:28.954Z,90.40
2018-10-16T23:45:56.584Z,90.30
2018-10-16T23:48:24.225Z,90.50
2018-10-16T23:50:51.896Z,90.20
2018-10-16T23:53:19.604Z,90.90
2018-10-16T23:55:47.399Z,90.80
2018-10-16T23:58:15.098Z,90.90
